Flight Track Log - Related Links

Times and Time Zones

All times are in EDT time to prevent confusion due to time zone crossing. See the EGF4285 flight status page for this flight to view local times or setup timezone preferences in your user account.

Time Position Orientation Groundspeed Altitude Reporting Facility
EDT Latitude Longitude Course Direction KTS MPH feet Rate Location/Type
Tue 06:31:06 AM 39.1833 -76.7000 218° Southwest 163 188 1,300  Level Potomac TRACON
Tue 06:32:06 AM 39.1833 -76.7833 270° West 190 219 3,500 1,950 Climbing Potomac TRACON
Tue 06:33:00 AM 39.2000 -77.0306 270° West  Level FlightAware Approximate
Tue 06:33:06 AM 39.2000 -76.8500 288° West 216 249 5,200  Level Potomac TRACON
Tue 06:34:00 AM 39.1966 -77.1534 218° Southwest  Level FlightAware Approximate
Tue 06:34:06 AM 39.2167 -76.9333 284° West 237 273 7,100  Level Potomac TRACON
Tue 06:35:00 AM 39.1148 -77.2200 211° Southwest  Level FlightAware Approximate
Tue 06:35:06 AM 39.2167 -77.0167 270° West 253 291 9,000  Level Potomac TRACON
Tue 06:36:00 AM 39.0320 -77.2846 218° Southwest  Level FlightAware Approximate
Tue 06:37:03 AM 39.1842 -77.1903 256° West 265 305 11,700  Level Washington Center
Tue 06:38:01 AM 39.1106 -77.2447 210° Southwest 265 305 12,900 1,311 Climbing Washington Center
Tue 06:39:02 AM 39.0408 -77.3153 218° Southwest 295 339 14,300 1,230 Climbing Washington Center
Tue 06:40:03 AM 39.0286 -77.4272 262° West 295 339 15,400 942 Climbing Washington Center
Tue 06:41:03 AM 39.0208 -77.5206 264° West 307 353 16,200 966 Climbing Washington Center
Tue 06:42:01 AM 39.0103 -77.6647 265° West 335 386 17,300 1,100 Climbing Washington Center
Tue 06:43:03 AM 39.0019 -77.7739 264° West 347 399 18,400 934 Climbing Washington Center
Tue 06:44:03 AM 38.9892 -77.8989 263° West 353 406 19,200 763 Climbing Washington Center
Tue 06:45:01 AM 38.9783 -78.0294 264° West 358 412 19,900 864 Climbing Washington Center
Tue 06:46:01 AM 38.9653 -78.1600 263° West 364 419 20,900 950 Climbing Washington Center
Tue 06:47:01 AM 38.9622 -78.2906 268° West 369 425 21,800 942 Climbing Washington Center
Tue 06:48:02 AM 38.9675 -78.4244 273° West 369 425 22,800 984 Climbing Washington Center
Tue 06:49:03 AM 38.9708 -78.5553 272° West 369 425 23,800 1,017 Climbing Washington Center
Tue 06:50:00 AM 38.9758 -78.6889 273° West 369 425 24,800 1,008 Climbing Washington Center
Tue 06:51:02 AM 38.9783 -78.8253 271° West 369 425 25,800 590 Climbing Washington Center
Tue 06:52:02 AM 38.9850 -78.9617 274° West 379 436 26,000 99 Climbing Washington Center
Tue 06:53:03 AM 38.9872 -79.1036 271° West 390 449 26,000  Level Washington Center
Tue 06:54:00 AM 38.9911 -79.2533 272° West 413 475 26,000  Level Washington Center
Tue 06:55:02 AM 38.9969 -79.4031 273° West 419 482 26,000  Level Washington Center
Tue 06:56:03 AM 38.9961 -79.5553 270° West 425 489 26,000  Level Washington Center
Tue 06:57:01 AM 39.0011 -79.7158 272° West 437 503 26,000  Level Washington Center
Tue 06:59:21 AM 39.0039 -80.0658 271° West 435 501 26,000  Level Indianapolis Center
Tue 07:00:22 AM 39.0067 -80.2389 271° West 440 506 26,000  Level Indianapolis Center
Tue 07:01:22 AM 39.0089 -80.3933 271° West 436 502 26,000  Level Indianapolis Center
Tue 07:02:23 AM 39.0106 -80.5514 271° West 440 506 26,000  Level Indianapolis Center
Tue 07:03:24 AM 39.0119 -80.7069 271° West 437 503 26,000  Level Indianapolis Center
Tue 07:04:25 AM 39.0519 -80.8472 290° West 434 499 26,000  Level Indianapolis Center
Tue 07:05:26 AM 39.1128 -80.9733 302° West 419 482 26,000  Level Indianapolis Center
Tue 07:06:27 AM 39.1736 -81.0997 302° West 418 481 26,000  Level Indianapolis Center
Tue 07:07:28 AM 39.2339 -81.2283 301° West 421 484 26,000  Level Indianapolis Center
Tue 07:08:29 AM 39.3064 -81.3811 302° West 419 482 26,000  Level Indianapolis Center
Tue 07:09:31 AM 39.3658 -81.5086 301° West 417 480 26,000  Level Indianapolis Center
Tue 07:10:32 AM 39.4258 -81.6378 301° West 418 481 26,000  Level Indianapolis Center
Tue 07:11:33 AM 39.4850 -81.7675 301° West 419 482 26,000  Level Indianapolis Center
Tue 07:12:34 AM 39.5450 -81.8983 301° West 422 486 26,000  Level Indianapolis Center
Tue 07:13:35 AM 39.6050 -82.0283 301° West 421 484 26,000  Level Indianapolis Center
Tue 07:14:36 AM 39.6617 -82.1531 301° West 416 479 26,000  Level Indianapolis Center
Tue 07:15:37 AM 39.7219 -82.2828 301° West 418 481 26,000  Level Indianapolis Center
Tue 07:16:39 AM 39.7800 -82.4142 300° West 416 479 26,000  Level Indianapolis Center
Tue 07:17:40 AM 39.8492 -82.5672 301° West 418 481 26,000  Level Indianapolis Center
Tue 07:18:41 AM 39.9081 -82.6969 301° West 414 476 26,000  Level Indianapolis Center
Tue 07:19:42 AM 39.9664 -82.8272 300° West 414 476 26,000  Level Indianapolis Center
Tue 07:20:43 AM 40.0242 -82.9578 300° West 414 476 26,000  Level Indianapolis Center
Tue 07:21:45 AM 40.0819 -83.0883 300° West 413 475 26,000  Level Indianapolis Center
Tue 07:22:46 AM 40.1394 -83.2186 300° West 414 476 26,000  Level Indianapolis Center
Tue 07:23:47 AM 40.1972 -83.3489 300° West 414 476 26,000  Level Indianapolis Center
Tue 07:24:48 AM 40.2542 -83.4792 300° West 413 475 26,000  Level Indianapolis Center
Tue 07:25:50 AM 40.3117 -83.6100 300° West 414 476 26,000  Level Indianapolis Center
Tue 07:26:51 AM 40.3675 -83.7403 299° West 409 471 26,000  Level Indianapolis Center
Tue 07:27:52 AM 40.4336 -83.8931 300° West 410 472 26,000  Level Indianapolis Center
Tue 07:28:54 AM 40.4869 -84.0169 300° West 390 449 26,000  Level Indianapolis Center
Tue 07:29:55 AM 40.5367 -84.1358 299° West 372 428 26,000  Level Indianapolis Center
Tue 07:30:56 AM 40.5883 -84.2547 300° West 372 428 26,000  Level Indianapolis Center
Tue 07:31:58 AM 40.6389 -84.3744 299° West 371 427 26,000  Level Indianapolis Center
Tue 07:32:59 AM 40.6914 -84.4950 300° West 375 432 26,000  Level Indianapolis Center
Tue 07:34:01 AM 40.7417 -84.6164 299° West 374 430 26,000  Level Indianapolis Center
Tue 07:34:26 AM 40.7639 -84.6711 298° West 373 429 26,000  Level Chicago Center
Tue 07:35:28 AM 40.8144 -84.7908 299° West 373 429 26,000  Level Chicago Center
Tue 07:36:30 AM 40.8647 -84.9108 299° West 373 429 26,000  Level Chicago Center
Tue 07:37:31 AM 40.9144 -85.0297 299° West 372 428 26,000  Level Chicago Center
Tue 07:38:33 AM 40.9639 -85.1497 299° West 371 427 26,000  Level Chicago Center
Tue 07:39:34 AM 41.0256 -85.2589 307° West 374 430 26,000  Level Chicago Center
Tue 07:40:36 AM 41.0917 -85.3592 311° West 364 419 26,000 -290 Level Chicago Center
Tue 07:41:38 AM 41.1753 -85.4878 311° West 381 438 25,400 -488 Descending Chicago Center
Tue 07:42:39 AM 41.2461 -85.6058 309° West 400 460 25,000 -195 Descending Chicago Center
Tue 07:43:41 AM 41.2639 -85.7569 279° West 413 475 25,000  Level Chicago Center
Tue 07:44:43 AM 41.2911 -85.9056 284° West 420 483 25,000 -829 Level Chicago Center
Tue 07:45:44 AM 41.3319 -86.0458 291° West 410 472 23,300 -2,049 Descending Chicago Center
Tue 07:46:46 AM 41.3719 -86.1800 292° West 395 455 20,800 -2,439 Descending Chicago Center
Tue 07:47:47 AM 41.4075 -86.3125 290° West 384 442 18,300 -2,439 Descending Chicago Center
Tue 07:48:49 AM 41.4431 -86.4433 290° West 378 435 15,800 -2,419 Descending Chicago Center
Tue 07:49:51 AM 41.4753 -86.5619 290° West 355 409 13,300 -1,854 Descending Chicago Center
Tue 07:50:52 AM 41.5139 -86.7022 290° West 335 386 12,000 -634 Descending Chicago Center
Tue 07:51:54 AM 41.5742 -86.7806 316° Northwest 335 386 12,000  Level Chicago Center
Tue 07:52:56 AM 41.6653 -86.7964 353° North 333 383 12,000 -242 Level Chicago Center
Tue 07:53:58 AM 41.7564 -86.8058 356° North 331 381 11,500 -488 Descending Chicago Center
Tue 07:54:59 AM 41.8486 -86.8236 352° North 335 386 11,000 -244 Descending Chicago Center
Tue 07:56:01 AM 41.9242 -86.9206 316° Northwest 324 373 11,000  Level Chicago Center
Tue 07:57:03 AM 41.9619 -87.0303 295° West 327 376 11,000 -290 Level Chicago Center
Tue 07:58:05 AM 41.9833 -87.1342 286° West 290 334 10,400 -919 Descending Chicago Center
Tue 07:59:07 AM 41.9794 -87.2328 267° West 265 305 9,100 -1,306 Descending Chicago Center
Tue 08:00:09 AM 41.9853 -87.3311 275° West 265 305 7,700 -1,024 Descending Chicago Center
Tue 08:01:10 AM 41.9814 -87.4486 267° West 264 304 7,000 -1,024 Descending Chicago Center
Tue 08:02:12 AM 41.9836 -87.5433 272° West 258 297 5,600 -1,306 Descending Chicago Center
Tue 08:03:14 AM 41.9819 -87.6389 269° West 258 297 4,300 -1,258 Descending Chicago Center

Login

Don't have an account? Register now (free) for customized features, flight alerts, and more!